Palmer, IL (62556)

4:35 PM CDT on August 24, 2016 (GMT -0500)
Taylorville Municipal | | Change Station

Elev 623 ft 39.54 °N, 89.33 °W | Updated 20 minutes ago

Mostly Cloudy
Mostly Cloudy
86 °F
Feels Like 95 °F
N
8
Wind Variable Wind from WSW

Today
High -- | Low -- °F
--% Chance of Precip.
Yesterday
High -- | Low -- °F
Precip. -- in
Pressure 30.00 in
Visibility 10.0 miles
Clouds Scattered Clouds 3400 ft
Scattered Clouds 4100 ft
Mostly Cloudy 4700 ft
Heat Index 95 °F
Dew Point 75 °F
Humidity 70%
Rainfall 0.00 in
Snow Depth Not available.
6:19 AM 7:39 PM
Waning Gibbous, 53% visible
METAR KTAZ 242115Z AUTO 25007KT 10SM SCT034 SCT041 BKN047 30/24 A3000 RMK AO2 T03000241
Pressure 30.00 in
Visibility 10.0 miles
Clouds Scattered Clouds 3400 ft
Scattered Clouds 4100 ft
Mostly Cloudy 4700 ft
Heat Index 95 °F
Dew Point 75 °F
Humidity 70%
Rainfall 0.00 in
Snow Depth Not available.
6:19 AM 7:39 PM
Waning Gibbous, 53% visible
METAR KTAZ 242115Z AUTO 25007KT 10SM SCT034 SCT041 BKN047 30/24 A3000 RMK AO2 T03000241

10-Day Weather Forecast

Almanac

Astronomy

Aug. 24, 2016 Rise Set
Actual Time
Civil Twilight
Nautical Twilight
Astronomical Twilight
Moon
Length of Visible Light
Length of Day
Tomorrow will be .
, % of the Moon is Illuminated

Today's Extremes

State Highs State Lows

Community

WunderPhotos

Upload Photos

1,934,720 photos uploaded!

WunderBlog® & News

Nearby

Air Quality

  Air Quality AQ Index Pollutant
Not available.

Snow Depth

Station Depth Elevation

Earthquake Activity

City Distance Mag. Time & Date
Minimum magnitude displayed is 2.5.

Coastal Water Temperatures

Place Temperature

Stations

Nearby Weather Stations

Station Location Temp. Windchill Dew Point Humidity Wind Precip. Elev Updated Type
                   

Watches & Warnings

There are currently no watches in effect.